Guston, Kentucky
Current Conditions -  °F | °C
As of 2:58 AM on Tuesday 21 Oct 2014 (Local Time) from KFTK Reporting Station
Clear Clear  
Wind Chill: 47°   Ceiling: Unl
Heat Index: 49°   Visibility: 10mi
Dew Point: 45°   Wind: 5mph
Humidity: 87%   Direction: 260°W
Pressure: 29.96"   Gusts: NA
Location:  37.89°N, 86.22°W
Report Text: KFTK 210658Z AUTO 26004KT 10SM CLR 09/07 A2996 RMK AO2 SLP147 T00930073
Loading
Personal Weather Stations






























Interactive Weather Map
Tropical Storm Tracking
New forecast layout! Learn more

10-Day Weather Forecast

Advertisements
Track Severe Weather on mobile